Reydon, Oklahoma
Current Conditions -  °F | °C
As of 4:55 PM on Wednesday 26 Nov 2014 (Local Time) from KHHF Reporting Station
Clear Clear  
Wind Chill: 50°   Ceiling: Unl
Heat Index: 50°   Visibility: 10mi
Dew Point: 22°   Wind: 9mph
Humidity: 33%   Direction: 20°NNE
Pressure: 30.28"   Gusts: NA
Location:  35.65°N, 99.92°W
Report Text: KHHF 262255Z AUTO 02008KT 10SM CLR 10/M06 A3028 RMK AO2 T01001058
Loading
Personal Weather Stations






























Interactive Weather Map New forecast layout! Learn more

10-Day Weather Forecast

Advertisements
Track Severe Weather on mobile